Time;durP1;ratioP1;P1;durP2;ratioP2;P2;SDS_P1;SDS_P2;PMS_P1;PMS_P2;Temp;Humidity;BMP_temperature;BMP_pressure;BME280_temperature;BME280_humidity;BME280_pressure;Samples;Min_cycle;Max_cycle;Signal;HPM_P1;HPM_P2
2022/10/10 00:01:27;;;;;;;39.42;37.92;;;8.50;79.60;;;;;;5029655;28;20026;-75
2022/10/10 00:03:53;;;;;;;37.47;36.08;;;8.40;79.50;;;;;;5011701;28;20037;-75
2022/10/10 00:06:19;;;;;;;;;;;8.40;79.50;;;;;;5012296;28;20163;-76
2022/10/10 00:08:45;;;;;;;36.78;35.38;;;8.40;79.50;;;;;;5029461;28;19999;-75
2022/10/10 00:11:12;;;;;;;;;;;8.40;79.50;;;;;;5012188;28;20045;-75
2022/10/10 00:13:39;;;;;;;39.45;37.95;;;8.40;79.50;;;;;;5029504;28;19978;-75
2022/10/10 00:16:05;;;;;;;38.15;36.75;;;8.30;79.40;;;;;;5011896;28;20021;-75
2022/10/10 00:18:30;;;;;;;40.28;38.78;;;8.30;79.40;;;;;;5029528;28;20025;-74
2022/10/10 00:20:56;;;;;;;38.72;37.33;;;8.30;79.40;;;;;;5028996;28;20037;-75
2022/10/10 00:23:22;;;;;;;39.63;38.13;;;8.30;79.40;;;;;;5011649;28;20056;-75
2022/10/10 00:25:48;;;;;;;40.85;39.35;;;8.30;79.40;;;;;;5029090;28;20060;-75
2022/10/10 00:28:14;;;;;;;37.70;36.30;;;8.20;79.40;;;;;;5029013;28;20029;-75
2022/10/10 00:30:40;;;;;;;38.10;36.70;;;8.20;79.30;;;;;;5028981;28;20029;-75
2022/10/10 00:33:06;;;;;;;38.90;37.45;;;8.20;79.30;;;;;;5029145;28;20079;-75
2022/10/10 00:35:32;;;;;;;38.13;36.72;;;8.20;79.40;;;;;;5011196;28;20037;-75
2022/10/10 00:37:57;;;;;;;39.92;38.42;;;8.10;79.30;;;;;;5029009;28;20029;-75
2022/10/10 00:40:24;;;;;;;39.88;38.38;;;8.10;79.30;;;;;;5011314;28;20332;-76
2022/10/10 00:42:49;;;;;;;38.20;36.80;;;8.10;79.40;;;;;;5011142;28;20391;-74
2022/10/10 00:45:28;;;;;;;39.70;38.20;;;8.00;79.30;;;;;;5011413;28;20036;-75
2022/10/10 00:48:02;;;;;;;40.47;38.97;;;8.00;79.40;;;;;;5028772;28;20104;-75
2022/10/10 00:50:30;;;;;;;38.40;37.00;;;8.00;79.40;;;;;;5028758;28;20529;-75
2022/10/10 00:52:57;;;;;;;37.83;36.42;;;8.00;79.40;;;;;;5028777;28;20034;-75
2022/10/10 00:55:23;;;;;;;37.47;36.08;;;8.00;79.40;;;;;;5028592;28;20113;-74
2022/10/10 00:57:49;;;;;;;;;;;7.90;79.40;;;;;;5011465;28;20440;-74
2022/10/10 01:00:15;;;;;;;35.45;34.15;;;7.90;79.40;;;;;;5028609;28;19955;-74
2022/10/10 01:02:40;;;;;;;38.47;37.08;;;7.90;79.30;;;;;;5028634;28;20067;-74
2022/10/10 01:05:07;;;;;;;37.72;36.33;;;7.90;79.30;;;;;;5028587;28;20571;-74
2022/10/10 01:07:33;;;;;;;36.78;35.35;;;7.90;79.30;;;;;;5028343;28;20124;-74
2022/10/10 01:10:03;;;;;;;36.97;35.58;;;7.90;79.30;;;;;;5028325;28;20053;-75
2022/10/10 01:12:59;;;;;;;38.28;36.88;;;7.80;79.30;;;;;;5010701;28;20049;-75
2022/10/10 01:15:43;;;;;;;37.38;35.97;;;7.80;79.30;;;;;;5010727;28;20113;-75
2022/10/10 01:18:28;;;;;;;37.83;36.42;;;7.80;79.30;;;;;;5028310;28;20025;-74
2022/10/10 01:21:09;;;;;;;38.40;37.00;;;7.80;79.30;;;;;;5028146;28;20105;-74
2022/10/10 01:23:56;;;;;;;38.22;36.83;;;7.80;79.30;;;;;;5010449;28;20052;-74
2022/10/10 01:26:37;;;;;;;;;;;7.80;79.30;;;;;;5028555;28;20036;-74
2022/10/10 01:29:28;;;;;;;39.42;37.92;;;7.70;79.20;;;;;;5028026;28;19909;-74
2022/10/10 01:31:57;;;;;;;38.65;37.25;;;7.70;79.20;;;;;;5027414;28;20068;-75
2022/10/10 01:34:39;;;;;;;38.38;36.97;;;7.70;79.20;;;;;;5028364;28;20032;-74
2022/10/10 01:37:20;;;;;;;38.00;36.60;;;7.70;79.30;;;;;;5010221;28;20037;-74
2022/10/10 01:40:38;;;;;;;40.63;39.13;;;7.60;79.30;;;;;;5027676;28;20049;-75
2022/10/10 01:43:07;;;;;;;38.80;37.40;;;7.60;79.30;;;;;;4985824;28;20034;-74
2022/10/10 01:45:34;;;;;;;37.45;36.05;;;7.60;79.30;;;;;;5027656;28;20419;-74
2022/10/10 01:48:06;;;;;;;36.55;35.15;;;7.60;79.30;;;;;;5010012;28;20428;-75
2022/10/10 01:50:40;;;;;;;35.13;33.83;;;7.60;79.40;;;;;;5027561;28;20037;-75
2022/10/10 01:53:19;;;;;;;33.25;31.95;;;7.60;79.50;;;;;;5027674;28;20480;-74
2022/10/10 01:56:08;;;;;;;32.78;31.58;;;7.60;79.50;;;;;;5027755;28;20029;-75
2022/10/10 01:58:59;;;;;;;31.80;30.60;;;7.60;79.60;;;;;;5009937;28;20029;-74
2022/10/10 02:01:43;;;;;;;31.30;30.10;;;7.70;79.70;;;;;;5027491;28;20033;-74
2022/10/10 02:04:19;;;;;;;29.48;28.38;;;7.80;79.70;;;;;;5009653;28;20131;-74
2022/10/10 02:07:00;;;;;;;30.45;29.25;;;7.80;79.70;;;;;;5009904;28;20022;-74
2022/10/10 02:09:36;;;;;;;28.25;27.15;;;7.90;79.70;;;;;;5009675;28;20402;-74
2022/10/10 02:12:04;;;;;;;30.37;29.17;;;7.90;79.60;;;;;;5009673;28;20037;-74
2022/10/10 02:14:36;;;;;;;30.48;29.30;;;7.90;79.60;;;;;;5027353;28;20029;-74
2022/10/10 02:17:04;;;;;;;29.17;28.08;;;7.90;79.50;;;;;;5009642;28;20498;-74
2022/10/10 02:19:30;;;;;;;31.05;29.85;;;7.90;79.50;;;;;;5027220;28;20025;-74
2022/10/10 02:21:56;;;;;;;32.25;31.05;;;7.90;79.50;;;;;;5009846;28;20032;-75
2022/10/10 02:24:23;;;;;;;27.85;26.75;;;8.00;79.60;;;;;;5027229;28;20033;-74
2022/10/10 02:27:04;;;;;;;28.35;27.25;;;8.00;79.60;;;;;;5027358;28;20423;-74
2022/10/10 02:29:35;;;;;;;28.77;27.67;;;8.00;79.70;;;;;;5027391;28;20430;-74
2022/10/10 02:32:30;;;;;;;25.60;24.60;;;8.00;79.70;;;;;;5027371;28;20104;-74
2022/10/10 02:35:02;;;;;;;27.30;26.25;;;8.00;79.70;;;;;;5027591;28;20021;-74
2022/10/10 02:37:29;;;;;;;25.55;24.55;;;8.00;79.60;;;;;;5027172;28;20032;-74
2022/10/10 02:39:59;;;;;;;29.00;27.90;;;8.10;79.70;;;;;;5009395;28;20443;-75
2022/10/10 02:42:26;;;;;;;29.90;28.80;;;8.00;79.60;;;;;;5010083;28;20043;-75
2022/10/10 02:44:53;;;;;;;27.95;26.85;;;8.00;79.70;;;;;;5031224;28;20060;-75
2022/10/10 02:47:19;;;;;;;26.95;25.95;;;8.00;79.60;;;;;;5013547;28;20497;-72
2022/10/10 02:49:45;;;;;;;27.13;26.13;;;8.00;79.60;;;;;;5031128;28;20093;-71
2022/10/10 02:52:13;;;;;;;28.75;27.65;;;8.00;79.70;;;;;;5013559;28;20402;-71
2022/10/10 02:54:39;;;;;;;27.63;26.52;;;8.00;79.70;;;;;;5013242;28;20025;-72
2022/10/10 02:57:05;;;;;;;28.23;27.13;;;8.00;79.70;;;;;;5031092;28;20409;-72
2022/10/10 02:59:31;;;;;;;30.23;29.08;;;7.90;79.60;;;;;;4996888;28;20060;-71
2022/10/10 03:01:57;;;;;;;29.35;28.25;;;7.90;79.70;;;;;;5013028;28;20547;-71
2022/10/10 03:04:23;;;;;;;31.27;30.08;;;7.90;79.70;;;;;;5030787;28;20041;-71
2022/10/10 03:06:48;;;;;;;28.77;27.67;;;7.90;79.70;;;;;;5012908;28;20391;-71
2022/10/10 03:09:14;;;;;;;27.45;26.35;;;7.90;79.70;;;;;;5031134;28;20368;-71
2022/10/10 03:11:40;;;;;;;31.60;30.40;;;7.90;79.80;;;;;;4996894;28;20044;-71
2022/10/10 03:14:06;;;;;;;29.10;28.00;;;7.90;79.80;;;;;;4996545;28;20034;-72
2022/10/10 03:16:32;;;;;;;28.30;27.20;;;7.90;79.80;;;;;;5012944;28;20502;-71
2022/10/10 03:18:57;;;;;;;29.50;28.40;;;7.80;79.80;;;;;;5013037;28;20037;-72
2022/10/10 03:21:23;;;;;;;31.90;30.70;;;7.80;79.70;;;;;;5013009;28;20387;-71
2022/10/10 03:23:49;;;;;;;30.17;29.02;;;7.80;79.80;;;;;;5030528;28;20107;-74
2022/10/10 03:26:14;;;;;;;30.92;29.73;;;7.80;79.80;;;;;;5030393;28;20040;-72
2022/10/10 03:28:40;;;;;;;29.75;28.65;;;7.80;79.80;;;;;;5030378;28;20044;-72
2022/10/10 03:31:06;;;;;;;28.40;27.30;;;7.80;79.80;;;;;;4996091;28;20029;-72
2022/10/10 03:33:33;;;;;;;30.35;29.15;;;7.80;79.80;;;;;;5030208;28;20498;-72
2022/10/10 03:35:59;;;;;;;28.02;26.92;;;7.80;79.80;;;;;;5030066;28;20079;-72
2022/10/10 03:38:24;;;;;;;28.70;27.60;;;7.80;79.80;;;;;;5029980;28;20054;-72
2022/10/10 03:40:50;;;;;;;28.92;27.83;;;7.80;79.80;;;;;;5012259;28;20432;-71
2022/10/10 03:43:16;;;;;;;28.27;27.17;;;7.80;79.80;;;;;;5030132;28;20041;-71
2022/10/10 03:45:43;;;;;;;29.00;27.90;;;7.80;79.70;;;;;;5012244;28;20065;-71
2022/10/10 03:48:09;;;;;;;26.92;25.90;;;7.80;79.70;;;;;;5029873;28;20029;-71
2022/10/10 03:50:35;;;;;;;27.40;26.30;;;7.80;79.70;;;;;;5029847;28;20438;-71
2022/10/10 03:53:02;;;;;;;28.38;27.27;;;7.70;79.70;;;;;;5029868;28;20040;-71
2022/10/10 03:55:27;;;;;;;;;;;7.70;79.70;;;;;;5011803;28;20071;-71
2022/10/10 03:57:53;;;;;;;26.83;25.83;;;7.70;79.70;;;;;;5012080;28;19945;-75
2022/10/10 04:00:19;;;;;;;28.35;27.25;;;7.70;79.60;;;;;;5029585;28;20115;-75
2022/10/10 04:02:45;;;;;;;29.00;27.90;;;7.60;79.60;;;;;;5029494;28;20033;-75
2022/10/10 04:05:11;;;;;;;28.42;27.33;;;7.60;79.60;;;;;;5029509;28;20492;-74
2022/10/10 04:07:37;;;;;;;28.95;27.85;;;7.60;79.70;;;;;;5029341;28;20029;-75
2022/10/10 04:10:03;;;;;;;31.15;29.95;;;7.60;79.70;;;;;;5029464;28;20118;-74
2022/10/10 04:12:29;;;;;;;29.27;28.17;;;7.50;79.60;;;;;;5011730;28;20500;-75
2022/10/10 04:14:55;;;;;;;30.60;29.40;;;7.50;79.60;;;;;;4995469;28;20112;-74
2022/10/10 04:17:20;;;;;;;31.58;30.38;;;7.50;79.60;;;;;;5029425;28;20108;-74
2022/10/10 04:19:46;;;;;;;32.70;31.50;;;7.40;79.60;;;;;;5029256;28;20432;-74
2022/10/10 04:22:13;;;;;;;31.95;30.75;;;7.40;79.60;;;;;;5029312;28;20068;-75
2022/10/10 04:24:38;;;;;;;30.92;29.73;;;7.40;79.60;;;;;;5029203;28;20025;-74
2022/10/10 04:27:04;;;;;;;32.70;31.50;;;7.50;79.70;;;;;;5011368;28;20025;-75
2022/10/10 04:29:30;;;;;;;31.20;30.00;;;7.40;79.60;;;;;;5029136;28;20033;-75
2022/10/10 04:31:56;;;;;;;33.63;32.33;;;7.40;79.60;;;;;;5011412;28;20033;-75
2022/10/10 04:34:21;;;;;;;33.00;31.77;;;7.40;79.60;;;;;;5029006;28;20034;-75
2022/10/10 04:36:47;;;;;;;36.33;34.92;;;7.40;79.60;;;;;;5029107;28;20075;-75
2022/10/10 04:39:13;;;;;;;34.70;33.40;;;7.40;79.60;;;;;;5028925;28;20675;-74
2022/10/10 04:41:38;;;;;;;33.53;32.22;;;7.40;79.60;;;;;;5029089;28;20038;-75
2022/10/10 04:44:04;;;;;;;34.95;33.65;;;7.40;79.60;;;;;;5028894;28;20022;-74
2022/10/10 04:46:30;;;;;;;36.67;35.28;;;7.40;79.60;;;;;;5028820;28;20041;-75
2022/10/10 04:48:56;;;;;;;36.70;35.30;;;7.40;79.60;;;;;;5028543;28;20072;-75
2022/10/10 04:51:21;;;;;;;38.63;37.22;;;7.30;79.60;;;;;;5028586;28;20033;-76
2022/10/10 04:53:47;;;;;;;38.42;37.03;;;7.30;79.60;;;;;;5028728;28;20100;-74
2022/10/10 04:56:13;;;;;;;36.65;35.25;;;7.30;79.60;;;;;;5028666;28;20033;-75
2022/10/10 04:58:38;;;;;;;38.85;37.40;;;7.30;79.60;;;;;;5010742;28;20439;-75
2022/10/10 05:01:04;;;;;;;40.03;38.53;;;7.30;79.60;;;;;;5028373;28;20061;-74
2022/10/10 05:03:30;;;;;;;40.83;39.33;;;7.30;79.60;;;;;;5028424;28;20108;-75
2022/10/10 05:05:56;;;;;;;42.60;41.00;;;7.30;79.50;;;;;;5027543;28;20167;-74
2022/10/10 05:08:21;;;;;;;39.45;37.95;;;7.30;79.50;;;;;;5028305;28;20487;-74
2022/10/10 05:10:50;;;;;;;39.83;38.33;;;7.20;79.50;;;;;;5010546;28;20365;-75
2022/10/10 05:13:16;;;;;;;40.00;38.50;;;7.20;79.50;;;;;;5011005;28;20034;-74
2022/10/10 05:15:42;;;;;;;40.90;39.40;;;7.20;79.50;;;;;;5028289;28;20021;-74
2022/10/10 05:18:08;;;;;;;39.33;37.83;;;7.20;79.50;;;;;;5028075;28;20039;-74
2022/10/10 05:20:35;;;;;;;39.50;38.00;;;7.20;79.50;;;;;;5028017;28;20061;-74
2022/10/10 05:23:01;;;;;;;40.53;39.03;;;7.10;79.50;;;;;;5028269;28;20108;-75
2022/10/10 05:25:27;;;;;;;41.60;40.10;;;7.10;79.50;;;;;;5027906;28;20033;-75
2022/10/10 05:27:53;;;;;;;41.55;40.03;;;7.10;79.50;;;;;;4993800;28;20043;-74
2022/10/10 05:30:19;;;;;;;42.10;40.50;;;7.10;79.50;;;;;;5027522;28;20099;-75
2022/10/10 05:32:44;;;;;;;42.90;41.30;;;7.10;79.50;;;;;;4994098;28;20527;-74
2022/10/10 05:35:10;;;;;;;42.45;40.85;;;7.10;79.60;;;;;;5028076;28;20033;-75
2022/10/10 05:37:36;;;;;;;40.45;38.95;;;7.10;79.60;;;;;;5028000;28;20598;-74
2022/10/10 05:40:02;;;;;;;40.42;38.92;;;7.10;79.60;;;;;;5027559;28;20116;-74
2022/10/10 05:42:28;;;;;;;;;;;7.00;79.60;;;;;;5028067;28;20060;-74
2022/10/10 05:44:53;;;;;;;45.83;44.13;;;7.00;79.60;;;;;;5027576;28;19913;-75
2022/10/10 05:47:19;;;;;;;44.20;42.60;;;7.00;79.60;;;;;;5009728;28;20120;-75
2022/10/10 05:49:45;;;;;;;43.97;42.38;;;7.10;79.60;;;;;;5027527;28;20030;-75
2022/10/10 05:52:11;;;;;;;42.60;41.00;;;7.00;79.50;;;;;;5027509;28;20067;-75
2022/10/10 05:54:36;;;;;;;42.47;40.88;;;7.10;79.60;;;;;;5027526;28;20034;-75
2022/10/10 05:57:02;;;;;;;45.72;44.03;;;7.00;79.50;;;;;;5009648;28;20022;-76
2022/10/10 05:59:28;;;;;;;43.75;42.15;;;7.10;79.60;;;;;;5027097;28;20057;-75
2022/10/10 06:01:55;;;;;;;43.30;41.70;;;7.00;79.50;;;;;;5028033;28;20038;-74
2022/10/10 06:04:22;;;;;;;43.28;41.67;;;7.00;79.50;;;;;;5028143;28;20443;-75
2022/10/10 06:06:48;;;;;;;42.80;41.20;;;7.10;79.60;;;;;;5027947;28;20108;-75
2022/10/10 06:09:14;;;;;;;43.60;42.00;;;7.00;79.50;;;;;;5026850;28;20029;-76
2022/10/10 06:11:39;;;;;;;43.63;42.03;;;7.00;79.60;;;;;;5027250;28;20092;-75
2022/10/10 06:14:05;;;;;;;46.95;45.25;;;7.00;79.60;;;;;;5009588;28;20510;-75
2022/10/10 06:16:31;;;;;;;47.80;46.00;;;7.00;79.60;;;;;;5027113;28;20438;-75
2022/10/10 06:18:57;;;;;;;48.58;46.78;;;7.00;79.60;;;;;;4992755;28;20152;-75
2022/10/10 06:21:23;;;;;;;46.45;44.75;;;7.00;79.60;;;;;;5009380;28;20041;-75
2022/10/10 06:23:49;;;;;;;47.05;45.35;;;7.00;79.60;;;;;;5026997;28;20112;-75
2022/10/10 06:26:15;;;;;;;48.38;46.58;;;7.00;79.60;;;;;;5027053;28;20129;-76
2022/10/10 06:28:41;;;;;;;48.08;46.28;;;7.00;79.60;;;;;;5026931;28;20042;-74
2022/10/10 06:31:09;;;;;;;49.42;47.63;;;7.00;79.60;;;;;;4992644;28;20025;-75
2022/10/10 06:33:36;;;;;;;48.40;46.60;;;7.00;79.60;;;;;;5009089;28;20125;-75
2022/10/10 06:36:07;;;;;;;47.90;46.10;;;7.00;79.60;;;;;;5008886;28;20490;-75
2022/10/10 06:38:37;;;;;;;47.03;45.28;;;7.00;79.60;;;;;;5026454;28;20062;-75
2022/10/10 06:41:04;;;;;;;44.80;43.10;;;6.90;79.60;;;;;;5026347;28;20029;-75
2022/10/10 06:43:30;;;;;;;47.90;46.10;;;7.00;79.70;;;;;;5008704;28;20029;-75
2022/10/10 06:45:56;;;;;;;48.40;46.60;;;7.00;79.70;;;;;;5026760;28;20036;-75
2022/10/10 06:48:21;;;;;;;45.63;43.92;;;7.00;79.70;;;;;;5009054;28;20411;-74
2022/10/10 06:51:03;;;;;;;46.03;44.33;;;7.00;79.60;;;;;;5008841;28;20026;-76
2022/10/10 06:53:29;;;;;;;44.63;42.92;;;7.10;79.70;;;;;;5026530;28;20021;-75
2022/10/10 06:55:55;;;;;;;;;;;7.00;79.60;;;;;;5026777;28;20387;-75
2022/10/10 06:58:22;;;;;;;48.53;46.72;;;7.10;79.70;;;;;;5026137;28;19916;-75
2022/10/10 07:00:53;;;;;;;46.85;45.15;;;7.10;79.60;;;;;;5026450;28;20030;-74
2022/10/10 07:03:19;;;;;;;48.70;46.90;;;7.10;79.60;;;;;;5008326;28;20382;-74
2022/10/10 07:05:50;;;;;;;47.17;45.40;;;7.10;79.60;;;;;;5026271;28;20029;-75
2022/10/10 07:08:15;;;;;;;46.05;44.35;;;7.10;79.60;;;;;;5025997;28;20105;-75
2022/10/10 07:10:42;;;;;;;46.88;45.15;;;7.10;79.70;;;;;;5025524;28;20160;-75
2022/10/10 07:13:07;;;;;;;46.30;44.60;;;7.10;79.70;;;;;;5008187;28;20033;-75
2022/10/10 07:15:33;;;;;;;47.80;46.00;;;7.20;79.70;;;;;;5008559;28;20030;-75
2022/10/10 07:17:59;;;;;;;45.80;44.10;;;7.20;79.70;;;;;;5026042;28;20114;-75
2022/10/10 07:20:26;;;;;;;45.90;44.20;;;7.30;79.80;;;;;;5026264;28;20026;-75
2022/10/10 07:22:51;;;;;;;45.05;43.35;;;7.30;79.80;;;;;;4992244;28;20088;-75
2022/10/10 07:25:17;;;;;;;44.88;43.17;;;7.40;79.80;;;;;;5026197;28;20068;-76
2022/10/10 07:27:43;;;;;;;45.50;43.80;;;7.40;79.80;;;;;;4991941;28;20098;-75
2022/10/10 07:30:09;;;;;;;42.05;40.45;;;7.50;79.80;;;;;;4993333;28;20029;-75
2022/10/10 07:32:35;;;;;;;44.90;43.20;;;7.60;80.00;;;;;;5029727;28;20037;-75
2022/10/10 07:35:01;;;;;;;43.42;41.83;;;7.70;80.00;;;;;;5029838;28;20406;-75
2022/10/10 07:37:26;;;;;;;40.28;38.78;;;7.80;80.00;;;;;;5011911;28;20029;-75
2022/10/10 07:39:52;;;;;;;42.95;41.35;;;7.90;80.00;;;;;;5029406;28;20345;-76
2022/10/10 07:42:19;;;;;;;41.33;39.75;;;7.90;79.90;;;;;;5029851;28;20034;-75
2022/10/10 07:44:44;;;;;;;40.88;39.38;;;8.00;79.90;;;;;;5028978;28;20032;-75
2022/10/10 07:47:10;;;;;;;44.90;43.20;;;8.10;80.00;;;;;;5029284;28;20487;-75
2022/10/10 07:49:36;;;;;;;43.83;42.17;;;8.20;80.00;;;;;;5011533;28;20519;-75
2022/10/10 07:52:02;;;;;;;43.40;41.80;;;8.20;79.90;;;;;;5028740;28;20135;-75
2022/10/10 07:54:31;;;;;;;43.03;41.42;;;8.30;79.90;;;;;;4994955;28;20431;-75
2022/10/10 07:56:57;;;;;;;43.15;41.55;;;8.40;80.00;;;;;;5028864;28;20518;-76
2022/10/10 07:59:23;;;;;;;41.70;40.10;;;8.50;80.10;;;;;;5028486;28;20038;-76
2022/10/10 08:01:50;;;;;;;40.83;39.33;;;8.60;80.00;;;;;;5029084;28;20094;-75
2022/10/10 08:04:16;;;;;;;37.30;35.90;;;8.70;80.10;;;;;;5010640;28;20036;-75
2022/10/10 08:06:42;;;;;;;33.33;32.03;;;8.80;80.30;;;;;;5028763;28;20029;-75
2022/10/10 08:09:08;;;;;;;25.98;24.98;;;9.10;80.70;;;;;;5010614;28;20399;-75
2022/10/10 08:11:33;;;;;;;25.85;24.85;;;9.60;81.80;;;;;;5028847;28;20021;-75
2022/10/10 08:13:59;;;;;;;23.23;22.33;;;10.40;82.50;;;;;;5028864;28;20036;-75
2022/10/10 08:16:25;;;;;;;22.02;21.13;;;11.30;82.30;;;;;;4994571;28;20044;-75
2022/10/10 08:18:51;;;;;;;17.05;16.35;;;12.10;81.90;;;;;;5028712;28;20127;-76
2022/10/10 08:21:17;;;;;;;17.08;16.38;;;13.00;81.70;;;;;;5010834;28;20033;-76
2022/10/10 08:23:43;;;;;;;;;;;13.80;81.40;;;;;;5028681;28;20236;-68
2022/10/10 08:26:12;;;;;;;11.57;11.07;;;14.40;80.90;;;;;;5028329;28;20282;-76
2022/10/10 08:28:38;;;;;;;11.63;11.13;;;15.00;80.50;;;;;;5028478;28;20036;-76
2022/10/10 08:31:09;;;;;;;9.52;9.05;;;15.50;80.60;;;;;;5028379;28;20058;-75
2022/10/10 08:33:35;;;;;;;2.97;2.78;;;16.20;80.90;;;;;;5028507;28;20521;-75
2022/10/10 08:36:08;;;;;;;;;;;16.80;80.90;;;;;;5010870;28;20127;-75
2022/10/10 08:38:34;;;;;;;3.00;2.80;;;17.30;80.60;;;;;;5028143;28;20397;-75
2022/10/10 08:41:18;;;;;;;3.15;2.95;;;17.80;80.50;;;;;;5010291;28;20049;-75
2022/10/10 08:43:49;;;;;;;1.92;1.83;;;18.20;80.50;;;;;;5028167;28;20498;-76
2022/10/10 08:46:30;;;;;;;1.20;1.15;;;18.50;80.60;;;;;;5028136;28;20025;-72
2022/10/10 08:48:59;;;;;;;0.63;0.63;;;18.90;81.00;;;;;;5029444;28;20033;-76
2022/10/10 08:51:31;;;;;;;0.30;0.30;;;19.40;81.10;;;;;;5028282;28;20037;-75
2022/10/10 08:54:03;;;;;;;0.10;0.10;;;19.70;81.20;;;;;;5028217;28;20022;-76
2022/10/10 08:56:33;;;;;;;0.10;0.10;;;20.00;81.10;;;;;;5028018;28;20108;-76
2022/10/10 08:59:23;;;;;;;0.10;0.10;;;20.30;81.20;;;;;;5027991;28;20029;-76
2022/10/10 09:01:54;;;;;;;0.10;0.10;;;20.50;81.30;;;;;;5027641;28;20028;-74
2022/10/10 09:04:20;;;;;;;0.03;0.03;;;20.70;81.20;;;;;;5028035;28;20112;-75
2022/10/10 09:06:54;;;;;;;;;;;21.00;81.40;;;;;;5010655;28;20133;-77
2022/10/10 09:10:11;;;;;;;0.10;0.10;;;21.20;81.30;;;;;;5027764;28;20286;-71
2022/10/10 09:12:39;;;;;;;0.00;0.00;;;21.40;81.30;;;;;;5006783;28;20051;-71
2022/10/10 09:15:19;;;;;;;0.20;0.20;;;21.60;81.50;;;;;;5027742;28;20059;-71
2022/10/10 09:17:52;;;;;;;0.00;0.00;;;21.70;81.40;;;;;;5027403;28;20033;-71
2022/10/10 09:20:26;;;;;;;0.00;0.00;;;22.00;81.70;;;;;;5027277;28;20037;-71
2022/10/10 09:22:54;;;;;;;0.00;0.00;;;22.30;81.70;;;;;;5027685;28;20075;-71
2022/10/10 09:25:39;;;;;;;0.00;0.00;;;22.40;81.80;;;;;;5027040;28;20051;-72
2022/10/10 09:28:14;;;;;;;0.05;0.05;;;22.50;81.80;;;;;;5027221;28;20026;-72
2022/10/10 09:30:46;;;;;;;0.00;0.00;;;22.70;82.20;;;;;;5027228;28;20025;-72
2022/10/10 09:33:32;;;;;;;0.00;0.00;;;23.00;82.30;;;;;;5028185;28;20033;-75
2022/10/10 09:36:02;;;;;;;0.00;0.00;;;23.20;82.40;;;;;;5028585;28;20030;-74
2022/10/10 09:38:37;;;;;;;0.00;0.00;;;23.60;82.40;;;;;;5028169;28;20069;-72
2022/10/10 09:41:32;;;;;;;0.00;0.00;;;23.80;82.30;;;;;;5028039;28;20534;-72
2022/10/10 09:44:01;;;;;;;0.00;0.00;;;24.20;82.50;;;;;;5020998;28;20073;-72
2022/10/10 09:46:27;;;;;;;0.00;0.00;;;24.50;82.30;;;;;;5028160;28;20429;-72
2022/10/10 09:48:53;;;;;;;0.00;0.00;;;24.50;82.40;;;;;;5010370;28;20117;-72
2022/10/10 09:51:20;;;;;;;0.00;0.00;;;24.50;82.80;;;;;;5027857;28;20116;-71
2022/10/10 09:53:47;;;;;;;0.00;0.00;;;24.50;83.00;;;;;;5009681;28;20030;-71
2022/10/10 09:56:29;;;;;;;0.00;0.00;;;24.60;83.30;;;;;;5027643;28;20026;-71
2022/10/10 09:58:55;;;;;;;0.00;0.00;;;24.80;83.20;;;;;;5027984;28;20034;-71
2022/10/10 10:01:27;;;;;;;0.00;0.00;;;25.00;83.00;;;;;;5026904;28;20041;-72
2022/10/10 10:04:13;;;;;;;0.00;0.00;;;25.10;83.10;;;;;;5027133;28;20116;-72
2022/10/10 10:06:46;;;;;;;0.00;0.00;;;25.50;83.10;;;;;;5026767;28;20087;-72
2022/10/10 10:09:18;;;;;;;0.00;0.00;;;25.50;83.50;;;;;;5027721;28;20036;-73
2022/10/10 10:11:46;;;;;;;0.00;0.00;;;25.60;83.30;;;;;;5028083;28;20479;-75
2022/10/10 10:14:27;;;;;;;0.10;0.00;;;25.70;83.70;;;;;;5028231;28;20113;-72
2022/10/10 10:16:55;;;;;;;0.00;0.00;;;26.00;83.70;;;;;;5027969;28;20105;-72
2022/10/10 10:19:35;;;;;;;0.00;0.00;;;26.10;83.50;;;;;;5027834;28;20050;-72
2022/10/10 10:22:01;;;;;;;0.00;0.00;;;26.00;83.00;;;;;;5027505;28;20106;-72
2022/10/10 10:24:35;;;;;;;0.00;0.00;;;25.90;83.10;;;;;;5026919;28;20056;-72
2022/10/10 10:27:21;;;;;;;0.00;0.00;;;26.10;83.50;;;;;;5026666;28;20033;-72
2022/10/10 10:29:55;;;;;;;0.00;0.00;;;26.00;83.40;;;;;;5025995;28;20395;-72
2022/10/10 10:32:33;;;;;;;0.00;0.00;;;26.10;83.50;;;;;;5026367;28;20030;-71
2022/10/10 10:35:11;;;;;;;0.00;0.00;;;26.00;83.30;;;;;;5026562;28;20022;-71
2022/10/10 10:37:42;;;;;;;0.00;0.00;;;26.00;83.50;;;;;;5026523;28;20352;-71
2022/10/10 10:40:46;;;;;;;0.00;0.00;;;26.00;83.40;;;;;;5025385;28;20523;-71
2022/10/10 10:43:33;;;;;;;0.00;0.00;;;26.10;83.20;;;;;;4945986;28;20283;-72
2022/10/10 10:46:01;;;;;;;;;;;26.30;83.40;;;;;;5020267;28;20044;-71
2022/10/10 10:48:42;;;;;;;0.00;0.00;;;26.60;83.50;;;;;;5023640;28;20336;-72
2022/10/10 10:51:35;;;;;;;0.00;0.00;;;26.70;82.90;;;;;;5023870;28;20040;-72
2022/10/10 10:54:19;;;;;;;0.00;0.00;;;26.90;83.20;;;;;;5023526;28;20519;-72
2022/10/10 10:57:32;;;;;;;0.00;0.00;;;27.10;83.00;;;;;;5025734;28;20139;-72
2022/10/10 11:00:19;;;;;;;0.00;0.00;;;27.40;83.10;;;;;;5020764;28;20044;-72
2022/10/10 11:03:26;;;;;;;0.00;0.00;;;27.60;82.80;;;;;;5026750;28;20029;-71
2022/10/10 11:06:09;;;;;;;0.00;0.00;;;27.60;82.80;;;;;;5039285;28;20075;-72
2022/10/10 11:08:34;;;;;;;0.00;0.00;;;27.60;82.90;;;;;;5036726;28;20037;-72
2022/10/10 11:11:12;;;;;;;0.00;0.00;;;27.80;83.10;;;;;;5039611;28;20025;-72
2022/10/10 11:13:59;;;;;;;0.00;0.00;;;27.80;82.60;;;;;;5038241;28;20025;-72
2022/10/10 11:16:44;;;;;;;;;;;27.80;83.00;;;;;;5040830;28;20025;-72
2022/10/10 11:19:10;;;;;;;0.25;0.20;;;27.80;82.50;;;;;;5036308;28;19905;-71
2022/10/10 11:22:07;;;;;;;0.25;0.25;;;27.80;82.60;;;;;;5042655;28;20474;-72
2022/10/10 11:24:51;;;;;;;0.00;0.00;;;27.80;82.60;;;;;;5036249;28;20037;-72
2022/10/10 11:27:23;;;;;;;0.00;0.00;;;27.90;82.80;;;;;;5038133;28;20045;-72
2022/10/10 11:30:16;;;;;;;0.00;0.00;;;28.00;83.00;;;;;;5038744;28;20052;-72
2022/10/10 11:33:06;;;;;;;0.00;0.00;;;28.00;82.50;;;;;;5039130;28;20024;-72
2022/10/10 11:35:37;;;;;;;0.00;0.00;;;27.90;82.20;;;;;;5036787;28;20041;-72
2022/10/10 11:38:24;;;;;;;0.05;0.05;;;27.70;82.30;;;;;;5041082;28;20041;-71
2022/10/10 11:41:33;;;;;;;0.00;0.00;;;27.40;81.90;;;;;;5040559;28;20100;-64
2022/10/10 11:44:08;;;;;;;0.00;0.00;;;27.20;82.80;;;;;;4958626;28;20021;-71
2022/10/10 11:46:45;;;;;;;0.00;0.00;;;27.40;83.20;;;;;;4968866;28;20085;-73
2022/10/10 11:49:11;;;;;;;0.00;0.00;;;27.50;82.90;;;;;;5020582;28;20083;-74
2022/10/10 11:51:43;;;;;;;0.00;0.00;;;27.30;81.90;;;;;;5031806;28;20056;-75
2022/10/10 11:54:40;;;;;;;0.00;0.00;;;27.00;82.00;;;;;;5031976;28;20059;-73
2022/10/10 11:57:38;;;;;;;0.00;0.00;;;26.80;81.90;;;;;;5049676;28;20032;-72
2022/10/10 12:00:15;;;;;;;0.00;0.00;;;26.10;80.70;;;;;;5015201;28;20112;-72
2022/10/10 12:02:43;;;;;;;0.00;0.00;;;25.30;80.50;;;;;;5031196;28;20029;-71
2022/10/10 12:05:20;;;;;;;0.00;0.00;;;24.60;80.70;;;;;;5031510;28;20430;-72
2022/10/10 12:08:01;;;;;;;0.00;0.00;;;24.00;80.70;;;;;;5031429;28;20045;-72
2022/10/10 12:10:43;;;;;;;0.10;0.05;;;23.40;80.80;;;;;;5049927;28;20454;-71
2022/10/10 12:13:27;;;;;;;0.00;0.00;;;22.90;80.80;;;;;;5049455;28;20021;-75
2022/10/10 12:15:55;;;;;;;0.00;0.00;;;22.70;82.40;;;;;;5049153;28;20094;-72
2022/10/10 12:18:28;;;;;;;1.65;0.65;;;22.50;81.80;;;;;;5049910;28;20032;-72
2022/10/10 12:21:24;;;;;;;0.00;0.00;;;22.40;82.10;;;;;;5050049;28;20033;-73
2022/10/10 12:24:11;;;;;;;0.00;0.00;;;22.10;82.00;;;;;;5029005;28;20037;-72
2022/10/10 12:26:52;;;;;;;0.00;0.00;;;21.90;81.50;;;;;;5049464;28;20409;-73
2022/10/10 12:29:43;;;;;;;0.00;0.00;;;21.70;81.30;;;;;;5049964;28;20064;-74
2022/10/10 12:32:16;;;;;;;0.00;0.00;;;21.60;81.50;;;;;;5001987;28;20037;-72
2022/10/10 12:34:48;;;;;;;0.00;0.00;;;21.30;80.90;;;;;;5049339;28;20066;-71
2022/10/10 12:37:29;;;;;;;0.00;0.00;;;21.00;81.20;;;;;;5040384;28;20037;-71
2022/10/10 12:40:07;;;;;;;0.00;0.00;;;20.70;81.30;;;;;;5017193;28;20056;-72
2022/10/10 12:43:03;;;;;;;0.00;0.00;;;20.30;81.00;;;;;;5029341;28;20017;-71
2022/10/10 12:45:28;;;;;;;0.00;0.00;;;20.00;81.50;;;;;;5011110;28;20026;-72
2022/10/10 12:48:01;;;;;;;;;;;19.80;81.90;;;;;;5039088;28;20107;-71
2022/10/10 12:50:50;;;;;;;0.10;0.10;;;20.10;83.10;;;;;;5038271;28;20331;-71
2022/10/10 12:53:19;;;;;;;0.00;0.00;;;20.50;83.90;;;;;;5021241;28;20466;-72
2022/10/10 12:55:51;;;;;;;0.00;0.00;;;20.80;83.90;;;;;;5020671;28;20537;-72
2022/10/10 12:58:22;;;;;;;0.00;0.00;;;20.80;83.20;;;;;;5033708;28;20029;-71
2022/10/10 13:00:48;;;;;;;0.00;0.00;;;20.90;83.50;;;;;;5028169;28;20391;-72
2022/10/10 13:03:32;;;;;;;0.00;0.00;;;21.00;82.50;;;;;;5028930;28;20099;-72
2022/10/10 13:06:04;;;;;;;0.00;0.00;;;20.90;82.00;;;;;;5028965;28;20155;-72